BKPR/PRN METAR and TAF weather

Enter ICAO airport designator
Station Type Date Time Source
BKPR METAR 2019/08/25 18:00 UTC NOAA

BKPR 251800Z 31008KT 9999 SCT025CB BKN070 24/17 Q1018 NOSIG


Station Type Date Time Source
BKPR Decoded METAR 2019/08/25 18:00 UTC NOAA

Station name not available
Aug 25, 2019 - 02:00 PM EDT / 2019.08.25 1800 UTC
Wind: from the NW (310 degrees) at 9 MPH (8 KT):0
Visibility: greater than 7 mile(s):0
Sky conditions: mostly cloudy
Weather: Cumulonimbus clouds observed
Temperature: 75 F (24 C)
Dew Point: 62 F (17 C)
Relative Humidity: 64%
Pressure (altimeter): 30.06 in. Hg (1018 hPa)
ob: BKPR 251800Z 31008KT 9999 SCT025CB BKN070 24/17 Q1018 NOSIG
cycle: 18

Station Type Date Time Source
BKPR TAF 2019/08/25 18:30 UTC NOAA

TAF BKPR 251730Z 2518/2618 35008KT 9999 SCT050
TEMPO 2518/2522 VRB15KT 4000 -TSRA SCT025CB
TEMPO 2610/2618 5000 -TSRA FEW025CB

Example: see airport list